sensor_id;sensor_type;location;lat;lon;timestamp;P1;durP1;ratioP1;P2;durP2;ratioP2
49910;SDS011;35803;53.096;5.844;2024-01-27T00:02:04;13.00;;;2.10;;
49910;SDS011;35803;53.096;5.844;2024-01-27T00:04:50;11.65;;;1.98;;
49910;SDS011;35803;53.096;5.844;2024-01-27T00:07:36;5.97;;;1.63;;
49910;SDS011;35803;53.096;5.844;2024-01-27T00:10:22;8.52;;;1.63;;
49910;SDS011;35803;53.096;5.844;2024-01-27T00:13:07;9.45;;;1.98;;
49910;SDS011;35803;53.096;5.844;2024-01-27T00:15:53;7.65;;;2.03;;
49910;SDS011;35803;53.096;5.844;2024-01-27T00:18:40;8.93;;;2.20;;
49910;SDS011;35803;53.096;5.844;2024-01-27T00:21:25;7.78;;;1.98;;
49910;SDS011;35803;53.096;5.844;2024-01-27T00:24:12;13.88;;;1.80;;
49910;SDS011;35803;53.096;5.844;2024-01-27T00:26:59;6.32;;;1.52;;
49910;SDS011;35803;53.096;5.844;2024-01-27T00:29:45;7.88;;;1.80;;
49910;SDS011;35803;53.096;5.844;2024-01-27T00:32:31;10.63;;;1.55;;
49910;SDS011;35803;53.096;5.844;2024-01-27T00:35:19;9.13;;;1.67;;
49910;SDS011;35803;53.096;5.844;2024-01-27T00:38:05;13.18;;;2.03;;
49910;SDS011;35803;53.096;5.844;2024-01-27T00:40:50;11.00;;;2.20;;
49910;SDS011;35803;53.096;5.844;2024-01-27T00:43:36;13.98;;;2.17;;
49910;SDS011;35803;53.096;5.844;2024-01-27T00:46:22;14.45;;;2.47;;
49910;SDS011;35803;53.096;5.844;2024-01-27T00:49:08;8.52;;;1.80;;
49910;SDS011;35803;53.096;5.844;2024-01-27T00:51:54;6.13;;;1.67;;
49910;SDS011;35803;53.096;5.844;2024-01-27T00:54:39;8.25;;;1.95;;
49910;SDS011;35803;53.096;5.844;2024-01-27T00:57:25;9.23;;;2.20;;
49910;SDS011;35803;53.096;5.844;2024-01-27T01:00:11;11.57;;;1.85;;
49910;SDS011;35803;53.096;5.844;2024-01-27T01:02:57;11.57;;;1.98;;
49910;SDS011;35803;53.096;5.844;2024-01-27T01:05:43;8.52;;;1.80;;
49910;SDS011;35803;53.096;5.844;2024-01-27T01:08:29;10.02;;;2.10;;
49910;SDS011;35803;53.096;5.844;2024-01-27T01:11:14;15.07;;;2.05;;
49910;SDS011;35803;53.096;5.844;2024-01-27T01:14:00;13.18;;;2.00;;
49910;SDS011;35803;53.096;5.844;2024-01-27T01:16:46;10.50;;;2.10;;
49910;SDS011;35803;53.096;5.844;2024-01-27T01:19:32;8.70;;;1.63;;
49910;SDS011;35803;53.096;5.844;2024-01-27T01:22:18;7.55;;;1.50;;
49910;SDS011;35803;53.096;5.844;2024-01-27T01:25:03;12.52;;;2.70;;
49910;SDS011;35803;53.096;5.844;2024-01-27T01:27:49;7.68;;;1.65;;
49910;SDS011;35803;53.096;5.844;2024-01-27T01:30:35;9.32;;;2.35;;
49910;SDS011;35803;53.096;5.844;2024-01-27T01:33:21;13.60;;;1.90;;
49910;SDS011;35803;53.096;5.844;2024-01-27T01:36:07;8.63;;;1.80;;
49910;SDS011;35803;53.096;5.844;2024-01-27T01:38:53;11.32;;;1.63;;
49910;SDS011;35803;53.096;5.844;2024-01-27T01:41:38;9.95;;;1.58;;
49910;SDS011;35803;53.096;5.844;2024-01-27T01:44:29;12.63;;;1.80;;
49910;SDS011;35803;53.096;5.844;2024-01-27T01:47:15;8.95;;;1.85;;
49910;SDS011;35803;53.096;5.844;2024-01-27T01:50:01;10.05;;;1.80;;
49910;SDS011;35803;53.096;5.844;2024-01-27T01:52:47;14.30;;;2.20;;
49910;SDS011;35803;53.096;5.844;2024-01-27T01:55:34;9.32;;;1.75;;
49910;SDS011;35803;53.096;5.844;2024-01-27T01:58:20;8.50;;;1.27;;
49910;SDS011;35803;53.096;5.844;2024-01-27T02:01:06;10.05;;;1.77;;
49910;SDS011;35803;53.096;5.844;2024-01-27T02:03:52;8.30;;;1.63;;
49910;SDS011;35803;53.096;5.844;2024-01-27T02:06:39;6.97;;;1.80;;
49910;SDS011;35803;53.096;5.844;2024-01-27T02:09:24;5.13;;;1.33;;
49910;SDS011;35803;53.096;5.844;2024-01-27T02:12:10;10.23;;;1.80;;
49910;SDS011;35803;53.096;5.844;2024-01-27T02:14:56;12.35;;;2.03;;
49910;SDS011;35803;53.096;5.844;2024-01-27T02:17:42;9.95;;;1.80;;
49910;SDS011;35803;53.096;5.844;2024-01-27T02:20:28;16.10;;;1.77;;
49910;SDS011;35803;53.096;5.844;2024-01-27T02:23:13;13.45;;;1.83;;
49910;SDS011;35803;53.096;5.844;2024-01-27T02:25:59;5.13;;;1.33;;
49910;SDS011;35803;53.096;5.844;2024-01-27T02:28:45;10.10;;;2.13;;
49910;SDS011;35803;53.096;5.844;2024-01-27T02:31:31;8.88;;;1.70;;
49910;SDS011;35803;53.096;5.844;2024-01-27T02:34:17;8.48;;;1.73;;
49910;SDS011;35803;53.096;5.844;2024-01-27T02:37:02;8.02;;;1.55;;
49910;SDS011;35803;53.096;5.844;2024-01-27T02:39:48;7.65;;;1.80;;
49910;SDS011;35803;53.096;5.844;2024-01-27T02:42:34;6.68;;;1.25;;
49910;SDS011;35803;53.096;5.844;2024-01-27T02:45:20;11.68;;;1.80;;
49910;SDS011;35803;53.096;5.844;2024-01-27T02:48:05;15.00;;;2.28;;
49910;SDS011;35803;53.096;5.844;2024-01-27T02:50:51;7.35;;;1.63;;
49910;SDS011;35803;53.096;5.844;2024-01-27T02:53:37;8.57;;;1.85;;
49910;SDS011;35803;53.096;5.844;2024-01-27T02:56:23;9.30;;;1.40;;
49910;SDS011;35803;53.096;5.844;2024-01-27T02:59:08;7.30;;;1.80;;
49910;SDS011;35803;53.096;5.844;2024-01-27T03:01:54;9.20;;;1.35;;
49910;SDS011;35803;53.096;5.844;2024-01-27T03:04:40;13.27;;;2.35;;
49910;SDS011;35803;53.096;5.844;2024-01-27T03:07:26;6.97;;;1.65;;
49910;SDS011;35803;53.096;5.844;2024-01-27T03:10:12;7.65;;;1.70;;
49910;SDS011;35803;53.096;5.844;2024-01-27T03:12:57;9.40;;;1.52;;
49910;SDS011;35803;53.096;5.844;2024-01-27T03:15:43;9.68;;;1.60;;
49910;SDS011;35803;53.096;5.844;2024-01-27T03:18:29;10.35;;;2.05;;
49910;SDS011;35803;53.096;5.844;2024-01-27T03:21:15;8.75;;;1.70;;
49910;SDS011;35803;53.096;5.844;2024-01-27T03:24:00;12.27;;;1.85;;
49910;SDS011;35803;53.096;5.844;2024-01-27T03:26:46;13.55;;;2.10;;
49910;SDS011;35803;53.096;5.844;2024-01-27T03:29:32;5.15;;;1.38;;
49910;SDS011;35803;53.096;5.844;2024-01-27T03:32:17;9.02;;;1.50;;
49910;SDS011;35803;53.096;5.844;2024-01-27T03:35:03;8.15;;;1.67;;
49910;SDS011;35803;53.096;5.844;2024-01-27T03:37:49;9.27;;;1.80;;
49910;SDS011;35803;53.096;5.844;2024-01-27T03:40:36;6.85;;;1.70;;
49910;SDS011;35803;53.096;5.844;2024-01-27T03:43:28;3.03;;;1.20;;
49910;SDS011;35803;53.096;5.844;2024-01-27T03:46:14;11.70;;;1.80;;
49910;SDS011;35803;53.096;5.844;2024-01-27T03:48:59;7.88;;;1.98;;
49910;SDS011;35803;53.096;5.844;2024-01-27T03:51:45;8.60;;;1.55;;
49910;SDS011;35803;53.096;5.844;2024-01-27T03:54:31;9.90;;;1.65;;
49910;SDS011;35803;53.096;5.844;2024-01-27T03:57:17;10.85;;;2.20;;
49910;SDS011;35803;53.096;5.844;2024-01-27T04:00:02;5.80;;;1.83;;
49910;SDS011;35803;53.096;5.844;2024-01-27T04:02:49;6.07;;;1.50;;
49910;SDS011;35803;53.096;5.844;2024-01-27T04:05:35;8.93;;;1.50;;
49910;SDS011;35803;53.096;5.844;2024-01-27T04:08:21;9.95;;;1.88;;
49910;SDS011;35803;53.096;5.844;2024-01-27T04:11:07;8.30;;;1.63;;
49910;SDS011;35803;53.096;5.844;2024-01-27T04:13:53;10.45;;;1.83;;
49910;SDS011;35803;53.096;5.844;2024-01-27T04:16:39;5.50;;;1.70;;
49910;SDS011;35803;53.096;5.844;2024-01-27T04:19:25;10.05;;;1.85;;
49910;SDS011;35803;53.096;5.844;2024-01-27T04:22:11;10.60;;;1.80;;
49910;SDS011;35803;53.096;5.844;2024-01-27T04:24:56;8.50;;;1.60;;
49910;SDS011;35803;53.096;5.844;2024-01-27T04:27:42;7.30;;;1.70;;
49910;SDS011;35803;53.096;5.844;2024-01-27T04:30:28;6.22;;;1.35;;
49910;SDS011;35803;53.096;5.844;2024-01-27T04:33:16;8.02;;;1.65;;
49910;SDS011;35803;53.096;5.844;2024-01-27T04:36:02;9.15;;;1.85;;
49910;SDS011;35803;53.096;5.844;2024-01-27T04:38:48;8.05;;;1.58;;
49910;SDS011;35803;53.096;5.844;2024-01-27T04:41:34;5.95;;;1.65;;
49910;SDS011;35803;53.096;5.844;2024-01-27T04:44:19;8.98;;;1.73;;
49910;SDS011;35803;53.096;5.844;2024-01-27T04:47:05;8.90;;;1.55;;
49910;SDS011;35803;53.096;5.844;2024-01-27T04:49:51;9.45;;;1.80;;
49910;SDS011;35803;53.096;5.844;2024-01-27T04:52:37;5.30;;;1.38;;
49910;SDS011;35803;53.096;5.844;2024-01-27T04:55:23;7.07;;;1.85;;
49910;SDS011;35803;53.096;5.844;2024-01-27T04:58:08;10.77;;;1.48;;
49910;SDS011;35803;53.096;5.844;2024-01-27T05:00:54;7.18;;;1.40;;
49910;SDS011;35803;53.096;5.844;2024-01-27T05:03:40;10.77;;;1.80;;
49910;SDS011;35803;53.096;5.844;2024-01-27T05:06:25;9.45;;;1.50;;
49910;SDS011;35803;53.096;5.844;2024-01-27T05:09:11;10.05;;;1.88;;
49910;SDS011;35803;53.096;5.844;2024-01-27T05:11:59;8.68;;;1.58;;
49910;SDS011;35803;53.096;5.844;2024-01-27T05:14:45;8.27;;;2.08;;
49910;SDS011;35803;53.096;5.844;2024-01-27T05:17:31;14.63;;;1.60;;
49910;SDS011;35803;53.096;5.844;2024-01-27T05:20:17;13.38;;;1.98;;
49910;SDS011;35803;53.096;5.844;2024-01-27T05:23:03;12.52;;;1.98;;
49910;SDS011;35803;53.096;5.844;2024-01-27T05:25:49;12.07;;;1.98;;
49910;SDS011;35803;53.096;5.844;2024-01-27T05:28:35;11.07;;;1.58;;
49910;SDS011;35803;53.096;5.844;2024-01-27T05:31:21;5.13;;;1.55;;
49910;SDS011;35803;53.096;5.844;2024-01-27T05:34:07;13.75;;;2.22;;
49910;SDS011;35803;53.096;5.844;2024-01-27T05:36:52;6.35;;;1.50;;
49910;SDS011;35803;53.096;5.844;2024-01-27T05:39:38;6.03;;;1.70;;
49910;SDS011;35803;53.096;5.844;2024-01-27T05:42:24;9.38;;;1.85;;
49910;SDS011;35803;53.096;5.844;2024-01-27T05:45:09;6.10;;;1.73;;
49910;SDS011;35803;53.096;5.844;2024-01-27T05:47:55;8.18;;;1.65;;
49910;SDS011;35803;53.096;5.844;2024-01-27T05:50:41;12.10;;;2.10;;
49910;SDS011;35803;53.096;5.844;2024-01-27T05:53:27;9.38;;;1.83;;
49910;SDS011;35803;53.096;5.844;2024-01-27T05:56:13;11.38;;;1.95;;
49910;SDS011;35803;53.096;5.844;2024-01-27T05:58:59;9.02;;;1.67;;
49910;SDS011;35803;53.096;5.844;2024-01-27T06:01:45;8.18;;;1.77;;
49910;SDS011;35803;53.096;5.844;2024-01-27T06:04:31;6.70;;;1.67;;
49910;SDS011;35803;53.096;5.844;2024-01-27T06:07:18;8.40;;;1.85;;
49910;SDS011;35803;53.096;5.844;2024-01-27T06:10:04;5.95;;;1.83;;
49910;SDS011;35803;53.096;5.844;2024-01-27T06:12:53;11.40;;;1.95;;
49910;SDS011;35803;53.096;5.844;2024-01-27T06:15:39;7.47;;;1.83;;
49910;SDS011;35803;53.096;5.844;2024-01-27T06:18:24;8.52;;;1.88;;
49910;SDS011;35803;53.096;5.844;2024-01-27T06:21:13;11.25;;;1.70;;
49910;SDS011;35803;53.096;5.844;2024-01-27T06:23:59;16.33;;;2.30;;
49910;SDS011;35803;53.096;5.844;2024-01-27T06:26:45;6.55;;;1.90;;
49910;SDS011;35803;53.096;5.844;2024-01-27T06:29:31;9.35;;;1.75;;
49910;SDS011;35803;53.096;5.844;2024-01-27T06:32:16;16.67;;;1.95;;
49910;SDS011;35803;53.096;5.844;2024-01-27T06:35:03;7.40;;;2.00;;
49910;SDS011;35803;53.096;5.844;2024-01-27T06:37:49;8.30;;;1.92;;
49910;SDS011;35803;53.096;5.844;2024-01-27T06:40:35;12.80;;;2.20;;
49910;SDS011;35803;53.096;5.844;2024-01-27T06:43:21;9.15;;;1.77;;
49910;SDS011;35803;53.096;5.844;2024-01-27T06:46:07;8.52;;;2.38;;
49910;SDS011;35803;53.096;5.844;2024-01-27T06:48:52;10.82;;;1.92;;
49910;SDS011;35803;53.096;5.844;2024-01-27T06:51:38;12.68;;;2.67;;
49910;SDS011;35803;53.096;5.844;2024-01-27T06:54:24;8.55;;;2.10;;
49910;SDS011;35803;53.096;5.844;2024-01-27T06:57:20;8.13;;;2.42;;
49910;SDS011;35803;53.096;5.844;2024-01-27T07:00:06;10.63;;;2.47;;
49910;SDS011;35803;53.096;5.844;2024-01-27T07:02:52;12.05;;;2.28;;
49910;SDS011;35803;53.096;5.844;2024-01-27T07:05:39;16.85;;;2.35;;
49910;SDS011;35803;53.096;5.844;2024-01-27T07:08:26;10.02;;;2.30;;
49910;SDS011;35803;53.096;5.844;2024-01-27T07:11:12;9.38;;;1.90;;
49910;SDS011;35803;53.096;5.844;2024-01-27T07:13:58;9.30;;;2.47;;
49910;SDS011;35803;53.096;5.844;2024-01-27T07:16:44;10.20;;;2.00;;
49910;SDS011;35803;53.096;5.844;2024-01-27T07:19:29;6.90;;;2.05;;
49910;SDS011;35803;53.096;5.844;2024-01-27T07:22:15;10.60;;;1.85;;
49910;SDS011;35803;53.096;5.844;2024-01-27T07:25:01;7.63;;;1.65;;
49910;SDS011;35803;53.096;5.844;2024-01-27T07:27:47;9.38;;;1.52;;
49910;SDS011;35803;53.096;5.844;2024-01-27T07:30:32;10.23;;;2.15;;
49910;SDS011;35803;53.096;5.844;2024-01-27T07:33:18;11.25;;;2.08;;
49910;SDS011;35803;53.096;5.844;2024-01-27T07:36:04;8.02;;;1.88;;
49910;SDS011;35803;53.096;5.844;2024-01-27T07:38:50;10.85;;;1.77;;
49910;SDS011;35803;53.096;5.844;2024-01-27T07:41:38;17.08;;;2.40;;
49910;SDS011;35803;53.096;5.844;2024-01-27T07:44:24;13.00;;;1.80;;
49910;SDS011;35803;53.096;5.844;2024-01-27T07:47:10;14.40;;;1.90;;
49910;SDS011;35803;53.096;5.844;2024-01-27T07:49:59;10.57;;;1.92;;
49910;SDS011;35803;53.096;5.844;2024-01-27T07:52:44;7.82;;;1.90;;
49910;SDS011;35803;53.096;5.844;2024-01-27T07:55:30;6.88;;;2.13;;
49910;SDS011;35803;53.096;5.844;2024-01-27T07:58:16;7.00;;;1.60;;
49910;SDS011;35803;53.096;5.844;2024-01-27T08:01:02;6.65;;;1.60;;
49910;SDS011;35803;53.096;5.844;2024-01-27T08:03:47;10.70;;;2.03;;
49910;SDS011;35803;53.096;5.844;2024-01-27T08:06:33;10.52;;;2.17;;
49910;SDS011;35803;53.096;5.844;2024-01-27T08:09:19;15.10;;;2.10;;
49910;SDS011;35803;53.096;5.844;2024-01-27T08:12:05;12.73;;;2.03;;
49910;SDS011;35803;53.096;5.844;2024-01-27T08:14:54;11.07;;;2.50;;
49910;SDS011;35803;53.096;5.844;2024-01-27T08:17:40;6.63;;;2.20;;
49910;SDS011;35803;53.096;5.844;2024-01-27T08:20:26;8.75;;;2.28;;
49910;SDS011;35803;53.096;5.844;2024-01-27T08:23:12;11.02;;;2.20;;
49910;SDS011;35803;53.096;5.844;2024-01-27T08:25:57;12.93;;;2.25;;
49910;SDS011;35803;53.096;5.844;2024-01-27T08:28:43;10.88;;;2.30;;
49910;SDS011;35803;53.096;5.844;2024-01-27T08:31:32;15.73;;;2.38;;
49910;SDS011;35803;53.096;5.844;2024-01-27T08:34:18;10.60;;;2.40;;
49910;SDS011;35803;53.096;5.844;2024-01-27T08:37:13;9.77;;;2.10;;
49910;SDS011;35803;53.096;5.844;2024-01-27T08:40:00;9.65;;;2.45;;
49910;SDS011;35803;53.096;5.844;2024-01-27T08:42:46;8.95;;;2.42;;
49910;SDS011;35803;53.096;5.844;2024-01-27T08:45:32;10.88;;;2.63;;
49910;SDS011;35803;53.096;5.844;2024-01-27T08:48:17;10.18;;;2.28;;
49910;SDS011;35803;53.096;5.844;2024-01-27T08:51:03;10.02;;;2.22;;
49910;SDS011;35803;53.096;5.844;2024-01-27T08:53:49;12.80;;;2.83;;
49910;SDS011;35803;53.096;5.844;2024-01-27T08:56:41;9.57;;;2.53;;
49910;SDS011;35803;53.096;5.844;2024-01-27T08:59:30;9.30;;;2.50;;
49910;SDS011;35803;53.096;5.844;2024-01-27T09:02:15;9.68;;;3.05;;
49910;SDS011;35803;53.096;5.844;2024-01-27T09:05:01;10.40;;;2.50;;
49910;SDS011;35803;53.096;5.844;2024-01-27T09:07:47;9.63;;;3.03;;
49910;SDS011;35803;53.096;5.844;2024-01-27T09:10:33;12.85;;;2.85;;
49910;SDS011;35803;53.096;5.844;2024-01-27T09:13:19;12.15;;;3.42;;
49910;SDS011;35803;53.096;5.844;2024-01-27T09:16:05;12.75;;;2.88;;
49910;SDS011;35803;53.096;5.844;2024-01-27T09:19:00;13.18;;;3.40;;
49910;SDS011;35803;53.096;5.844;2024-01-27T09:21:46;7.15;;;2.55;;
49910;SDS011;35803;53.096;5.844;2024-01-27T09:24:32;14.70;;;3.40;;
49910;SDS011;35803;53.096;5.844;2024-01-27T09:27:17;13.60;;;3.03;;
49910;SDS011;35803;53.096;5.844;2024-01-27T09:30:03;12.95;;;2.88;;
49910;SDS011;35803;53.096;5.844;2024-01-27T09:32:50;10.07;;;2.85;;
49910;SDS011;35803;53.096;5.844;2024-01-27T09:35:36;16.42;;;3.72;;
49910;SDS011;35803;53.096;5.844;2024-01-27T09:38:21;14.23;;;3.42;;
49910;SDS011;35803;53.096;5.844;2024-01-27T09:41:08;13.13;;;3.22;;
49910;SDS011;35803;53.096;5.844;2024-01-27T09:43:56;15.68;;;3.90;;
49910;SDS011;35803;53.096;5.844;2024-01-27T09:46:45;12.82;;;3.45;;
49910;SDS011;35803;53.096;5.844;2024-01-27T09:49:32;10.00;;;3.92;;
49910;SDS011;35803;53.096;5.844;2024-01-27T09:52:18;12.38;;;3.63;;
49910;SDS011;35803;53.096;5.844;2024-01-27T09:55:05;16.27;;;3.42;;
49910;SDS011;35803;53.096;5.844;2024-01-27T09:57:51;14.05;;;3.22;;
49910;SDS011;35803;53.096;5.844;2024-01-27T10:00:37;13.65;;;3.67;;
49910;SDS011;35803;53.096;5.844;2024-01-27T10:03:27;14.63;;;3.25;;
49910;SDS011;35803;53.096;5.844;2024-01-27T10:06:13;9.90;;;3.42;;
49910;SDS011;35803;53.096;5.844;2024-01-27T10:09:00;10.60;;;3.50;;
49910;SDS011;35803;53.096;5.844;2024-01-27T10:11:46;9.15;;;4.13;;
49910;SDS011;35803;53.096;5.844;2024-01-27T10:14:39;10.85;;;3.55;;
49910;SDS011;35803;53.096;5.844;2024-01-27T10:17:26;12.43;;;3.60;;
49910;SDS011;35803;53.096;5.844;2024-01-27T10:20:17;10.05;;;3.85;;
49910;SDS011;35803;53.096;5.844;2024-01-27T10:23:10;12.70;;;3.42;;
49910;SDS011;35803;53.096;5.844;2024-01-27T10:25:57;12.88;;;3.72;;
49910;SDS011;35803;53.096;5.844;2024-01-27T10:28:42;19.15;;;3.67;;
49910;SDS011;35803;53.096;5.844;2024-01-27T10:31:34;13.52;;;3.70;;
49910;SDS011;35803;53.096;5.844;2024-01-27T10:34:21;12.30;;;3.53;;
49910;SDS011;35803;53.096;5.844;2024-01-27T10:37:07;11.95;;;3.53;;
49910;SDS011;35803;53.096;5.844;2024-01-27T10:40:11;12.07;;;3.20;;
49910;SDS011;35803;53.096;5.844;2024-01-27T10:43:01;16.02;;;4.05;;
49910;SDS011;35803;53.096;5.844;2024-01-27T10:45:48;9.18;;;3.53;;
49910;SDS011;35803;53.096;5.844;2024-01-27T10:48:37;12.52;;;3.70;;
49910;SDS011;35803;53.096;5.844;2024-01-27T10:51:29;11.60;;;3.42;;
49910;SDS011;35803;53.096;5.844;2024-01-27T10:54:24;11.40;;;3.22;;
49910;SDS011;35803;53.096;5.844;2024-01-27T10:57:11;13.63;;;3.13;;
49910;SDS011;35803;53.096;5.844;2024-01-27T10:59:57;13.70;;;3.03;;
49910;SDS011;35803;53.096;5.844;2024-01-27T11:02:43;13.07;;;3.28;;
49910;SDS011;35803;53.096;5.844;2024-01-27T11:05:30;12.02;;;3.38;;
49910;SDS011;35803;53.096;5.844;2024-01-27T11:08:17;10.55;;;3.45;;
49910;SDS011;35803;53.096;5.844;2024-01-27T11:11:03;13.65;;;3.22;;
49910;SDS011;35803;53.096;5.844;2024-01-27T11:13:49;12.85;;;3.05;;
49910;SDS011;35803;53.096;5.844;2024-01-27T11:16:36;9.15;;;3.00;;
49910;SDS011;35803;53.096;5.844;2024-01-27T11:19:28;12.10;;;3.20;;
49910;SDS011;35803;53.096;5.844;2024-01-27T11:22:24;16.90;;;2.85;;
49910;SDS011;35803;53.096;5.844;2024-01-27T11:25:17;9.30;;;2.80;;
49910;SDS011;35803;53.096;5.844;2024-01-27T11:28:10;17.77;;;3.45;;
49910;SDS011;35803;53.096;5.844;2024-01-27T11:31:03;7.43;;;2.67;;
49910;SDS011;35803;53.096;5.844;2024-01-27T11:33:52;15.93;;;4.40;;
49910;SDS011;35803;53.096;5.844;2024-01-27T11:36:39;23.35;;;5.35;;
49910;SDS011;35803;53.096;5.844;2024-01-27T11:39:27;16.95;;;4.25;;
49910;SDS011;35803;53.096;5.844;2024-01-27T11:42:16;8.38;;;3.25;;
49910;SDS011;35803;53.096;5.844;2024-01-27T11:45:03;8.80;;;2.80;;
49910;SDS011;35803;53.096;5.844;2024-01-27T11:47:50;10.13;;;3.30;;
49910;SDS011;35803;53.096;5.844;2024-01-27T11:50:35;12.50;;;3.03;;
49910;SDS011;35803;53.096;5.844;2024-01-27T11:53:23;11.95;;;3.15;;
49910;SDS011;35803;53.096;5.844;2024-01-27T11:56:08;17.73;;;3.42;;
49910;SDS011;35803;53.096;5.844;2024-01-27T11:58:55;14.48;;;2.45;;
49910;SDS011;35803;53.096;5.844;2024-01-27T12:01:41;12.27;;;2.67;;
49910;SDS011;35803;53.096;5.844;2024-01-27T12:04:29;7.20;;;2.20;;
49910;SDS011;35803;53.096;5.844;2024-01-27T12:07:16;10.45;;;2.53;;
49910;SDS011;35803;53.096;5.844;2024-01-27T12:10:04;6.20;;;2.30;;
49910;SDS011;35803;53.096;5.844;2024-01-27T12:12:50;12.13;;;2.20;;
49910;SDS011;35803;53.096;5.844;2024-01-27T12:15:36;10.73;;;2.45;;
49910;SDS011;35803;53.096;5.844;2024-01-27T12:18:22;11.52;;;2.40;;
49910;SDS011;35803;53.096;5.844;2024-01-27T12:21:09;7.72;;;2.70;;
49910;SDS011;35803;53.096;5.844;2024-01-27T12:23:56;10.52;;;2.75;;
49910;SDS011;35803;53.096;5.844;2024-01-27T12:26:42;9.15;;;2.50;;
49910;SDS011;35803;53.096;5.844;2024-01-27T12:29:28;10.77;;;2.78;;
49910;SDS011;35803;53.096;5.844;2024-01-27T12:32:14;12.70;;;2.47;;
49910;SDS011;35803;53.096;5.844;2024-01-27T12:35:07;10.35;;;2.42;;
49910;SDS011;35803;53.096;5.844;2024-01-27T12:37:53;9.95;;;2.53;;
49910;SDS011;35803;53.096;5.844;2024-01-27T12:40:39;12.90;;;2.88;;
49910;SDS011;35803;53.096;5.844;2024-01-27T12:43:25;8.52;;;3.05;;
49910;SDS011;35803;53.096;5.844;2024-01-27T12:46:10;11.77;;;3.30;;
49910;SDS011;35803;53.096;5.844;2024-01-27T12:48:57;10.57;;;2.65;;
49910;SDS011;35803;53.096;5.844;2024-01-27T12:51:43;14.77;;;3.47;;
49910;SDS011;35803;53.096;5.844;2024-01-27T12:54:31;12.38;;;3.28;;
49910;SDS011;35803;53.096;5.844;2024-01-27T12:57:17;13.65;;;2.97;;
49910;SDS011;35803;53.096;5.844;2024-01-27T13:00:03;17.52;;;3.40;;
49910;SDS011;35803;53.096;5.844;2024-01-27T13:02:55;11.32;;;3.17;;
49910;SDS011;35803;53.096;5.844;2024-01-27T13:05:40;11.07;;;2.85;;
49910;SDS011;35803;53.096;5.844;2024-01-27T13:08:26;14.88;;;3.63;;
49910;SDS011;35803;53.096;5.844;2024-01-27T13:11:12;13.70;;;3.35;;
49910;SDS011;35803;53.096;5.844;2024-01-27T13:14:01;17.23;;;3.95;;
49910;SDS011;35803;53.096;5.844;2024-01-27T13:16:46;11.80;;;3.00;;
49910;SDS011;35803;53.096;5.844;2024-01-27T13:19:32;13.90;;;3.67;;
49910;SDS011;35803;53.096;5.844;2024-01-27T13:22:20;8.23;;;2.95;;
49910;SDS011;35803;53.096;5.844;2024-01-27T13:25:09;16.73;;;3.78;;
49910;SDS011;35803;53.096;5.844;2024-01-27T13:27:55;12.73;;;3.05;;
49910;SDS011;35803;53.096;5.844;2024-01-27T13:30:41;14.07;;;3.67;;
49910;SDS011;35803;53.096;5.844;2024-01-27T13:33:27;9.75;;;3.45;;
49910;SDS011;35803;53.096;5.844;2024-01-27T13:36:14;17.52;;;4.38;;
49910;SDS011;35803;53.096;5.844;2024-01-27T13:39:00;14.35;;;4.00;;
49910;SDS011;35803;53.096;5.844;2024-01-27T13:41:46;14.48;;;3.70;;
49910;SDS011;35803;53.096;5.844;2024-01-27T13:44:31;12.38;;;3.78;;
49910;SDS011;35803;53.096;5.844;2024-01-27T13:47:21;13.23;;;4.20;;
49910;SDS011;35803;53.096;5.844;2024-01-27T13:50:07;14.93;;;3.78;;
49910;SDS011;35803;53.096;5.844;2024-01-27T13:52:53;19.45;;;4.35;;
49910;SDS011;35803;53.096;5.844;2024-01-27T13:55:39;12.23;;;4.35;;
49910;SDS011;35803;53.096;5.844;2024-01-27T13:58:25;14.02;;;4.15;;
49910;SDS011;35803;53.096;5.844;2024-01-27T14:01:12;15.40;;;4.53;;
49910;SDS011;35803;53.096;5.844;2024-01-27T14:03:57;14.57;;;4.03;;
49910;SDS011;35803;53.096;5.844;2024-01-27T14:06:43;12.52;;;4.40;;
49910;SDS011;35803;53.096;5.844;2024-01-27T14:09:29;17.60;;;4.72;;
49910;SDS011;35803;53.096;5.844;2024-01-27T14:12:15;18.42;;;4.07;;
49910;SDS011;35803;53.096;5.844;2024-01-27T14:15:04;13.68;;;4.25;;
49910;SDS011;35803;53.096;5.844;2024-01-27T14:17:54;14.13;;;3.42;;
49910;SDS011;35803;53.096;5.844;2024-01-27T14:20:40;14.07;;;4.05;;
49910;SDS011;35803;53.096;5.844;2024-01-27T14:23:26;11.93;;;3.60;;
49910;SDS011;35803;53.096;5.844;2024-01-27T14:26:12;13.23;;;4.20;;
49910;SDS011;35803;53.096;5.844;2024-01-27T14:29:01;19.20;;;5.18;;
49910;SDS011;35803;53.096;5.844;2024-01-27T14:31:46;15.52;;;4.20;;
49910;SDS011;35803;53.096;5.844;2024-01-27T14:34:32;17.80;;;4.50;;
49910;SDS011;35803;53.096;5.844;2024-01-27T14:37:18;13.98;;;4.40;;
49910;SDS011;35803;53.096;5.844;2024-01-27T14:40:06;13.50;;;4.07;;
49910;SDS011;35803;53.096;5.844;2024-01-27T14:42:53;16.10;;;3.75;;
49910;SDS011;35803;53.096;5.844;2024-01-27T14:45:41;15.15;;;3.97;;
49910;SDS011;35803;53.096;5.844;2024-01-27T14:48:28;18.23;;;4.40;;
49910;SDS011;35803;53.096;5.844;2024-01-27T14:51:13;17.08;;;3.60;;
49910;SDS011;35803;53.096;5.844;2024-01-27T14:53:59;9.75;;;3.70;;
49910;SDS011;35803;53.096;5.844;2024-01-27T14:56:49;9.38;;;4.25;;
49910;SDS011;35803;53.096;5.844;2024-01-27T14:59:35;14.73;;;5.10;;
49910;SDS011;35803;53.096;5.844;2024-01-27T15:02:24;11.32;;;4.95;;
49910;SDS011;35803;53.096;5.844;2024-01-27T15:05:12;17.63;;;4.93;;
49910;SDS011;35803;53.096;5.844;2024-01-27T15:07:59;13.85;;;4.53;;
49910;SDS011;35803;53.096;5.844;2024-01-27T15:10:45;14.00;;;5.28;;
49910;SDS011;35803;53.096;5.844;2024-01-27T15:13:33;11.90;;;4.60;;
49910;SDS011;35803;53.096;5.844;2024-01-27T15:16:21;13.90;;;5.38;;
49910;SDS011;35803;53.096;5.844;2024-01-27T15:19:07;15.23;;;4.90;;
49910;SDS011;35803;53.096;5.844;2024-01-27T15:21:52;14.80;;;5.47;;
49910;SDS011;35803;53.096;5.844;2024-01-27T15:24:41;17.05;;;5.55;;
49910;SDS011;35803;53.096;5.844;2024-01-27T15:27:26;18.55;;;5.85;;
49910;SDS011;35803;53.096;5.844;2024-01-27T15:30:13;16.52;;;5.40;;
49910;SDS011;35803;53.096;5.844;2024-01-27T15:32:59;23.42;;;6.88;;
49910;SDS011;35803;53.096;5.844;2024-01-27T15:35:45;25.48;;;5.95;;
49910;SDS011;35803;53.096;5.844;2024-01-27T15:38:30;17.88;;;5.43;;
49910;SDS011;35803;53.096;5.844;2024-01-27T15:41:16;9.82;;;4.35;;
49910;SDS011;35803;53.096;5.844;2024-01-27T15:44:04;16.20;;;5.63;;
49910;SDS011;35803;53.096;5.844;2024-01-27T15:46:49;10.88;;;3.83;;
49910;SDS011;35803;53.096;5.844;2024-01-27T15:49:35;9.15;;;4.30;;
49910;SDS011;35803;53.096;5.844;2024-01-27T15:52:21;16.23;;;5.10;;
49910;SDS011;35803;53.096;5.844;2024-01-27T15:55:08;11.38;;;4.68;;
49910;SDS011;35803;53.096;5.844;2024-01-27T15:57:53;14.30;;;4.93;;
49910;SDS011;35803;53.096;5.844;2024-01-27T16:00:39;15.57;;;5.30;;
49910;SDS011;35803;53.096;5.844;2024-01-27T16:03:25;17.17;;;4.93;;
49910;SDS011;35803;53.096;5.844;2024-01-27T16:06:11;20.90;;;8.15;;
49910;SDS011;35803;53.096;5.844;2024-01-27T16:08:57;22.40;;;7.93;;
49910;SDS011;35803;53.096;5.844;2024-01-27T16:11:42;12.60;;;5.47;;
49910;SDS011;35803;53.096;5.844;2024-01-27T16:14:28;14.25;;;5.22;;
49910;SDS011;35803;53.096;5.844;2024-01-27T16:17:14;10.15;;;4.07;;
49910;SDS011;35803;53.096;5.844;2024-01-27T16:20:00;11.27;;;4.32;;
49910;SDS011;35803;53.096;5.844;2024-01-27T16:22:46;16.67;;;5.18;;
49910;SDS011;35803;53.096;5.844;2024-01-27T16:25:32;12.88;;;3.47;;
49910;SDS011;35803;53.096;5.844;2024-01-27T16:28:17;11.02;;;4.93;;
49910;SDS011;35803;53.096;5.844;2024-01-27T16:31:03;16.50;;;4.13;;
49910;SDS011;35803;53.096;5.844;2024-01-27T16:33:50;13.63;;;3.63;;
49910;SDS011;35803;53.096;5.844;2024-01-27T16:36:36;10.10;;;3.72;;